Time;durP1;ratioP1;P1;durP2;ratioP2;P2;SDS_P1;SDS_P2;PMS_P1;PMS_P2;Temp;Humidity;BMP_temperature;BMP_pressure;BME280_temperature;BME280_humidity;BME280_pressure;Samples;Min_cycle;Max_cycle;Signal;HPM_P1;HPM_P2
2023/06/09 00:01:37;;;;;;;10.50;9.15;;;;;;;-145.41;100.00;58600.66;5011753;28;20076;-78
2023/06/09 00:04:03;;;;;;;14.05;12.60;;;;;;;-145.41;100.00;58600.66;5012191;28;20038;-78
2023/06/09 00:06:30;;;;;;;13.23;11.38;;;;;;;-145.41;100.00;58600.66;5012439;28;20042;-79
2023/06/09 00:08:59;;;;;;;13.23;11.27;;;;;;;-145.41;100.00;58600.66;5014068;28;20257;-79
2023/06/09 00:11:25;;;;;;;12.27;10.80;;;;;;;-145.41;100.00;58600.66;5009282;28;20045;-79
2023/06/09 00:13:51;;;;;;;14.25;11.50;;;;;;;-145.41;100.00;58600.66;5016448;28;20431;-78
2023/06/09 00:16:16;;;;;;;14.48;11.68;;;;;;;-145.41;100.00;58600.66;5020935;28;20046;-78
2023/06/09 00:18:43;;;;;;;11.80;10.70;;;;;;;-145.41;100.00;58600.66;5015739;28;20030;-79
2023/06/09 00:21:10;;;;;;;15.20;13.55;;;;;;;-145.41;100.00;58600.66;5013931;28;20033;-79
2023/06/09 00:23:35;;;;;;;12.48;11.18;;;;;;;-145.41;100.00;58600.66;5014277;28;20183;-78
2023/06/09 00:26:02;;;;;;;12.57;11.38;;;;;;;-145.41;100.00;58600.66;5017332;28;20038;-79
2023/06/09 00:28:27;;;;;;;13.93;12.52;;;;;;;-145.41;100.00;58600.66;5015444;28;20038;-78
2023/06/09 00:30:52;;;;;;;12.05;10.75;;;;;;;-145.41;100.00;58600.66;5015772;28;20052;-79
2023/06/09 00:33:18;;;;;;;13.27;11.90;;;;;;;-145.41;100.00;58600.66;5016212;28;20065;-79
2023/06/09 00:35:43;;;;;;;12.23;10.38;;;;;;;-145.41;100.00;58600.66;5015778;28;20100;-79
2023/06/09 00:38:08;;;;;;;13.55;11.02;;;;;;;-145.41;100.00;58600.66;5017516;28;20029;-79
2023/06/09 00:40:34;;;;;;;15.00;13.10;;;;;;;-145.41;100.00;58600.66;5022212;28;20033;-79
2023/06/09 00:42:59;;;;;;;16.20;14.50;;;;;;;-145.41;100.00;58600.66;5017410;28;20036;-79
2023/06/09 00:45:25;;;;;;;15.70;14.10;;;;;;;-145.41;100.00;58600.66;5016168;28;20037;-79
2023/06/09 00:47:51;;;;;;;13.75;12.35;;;;;;;-145.41;100.00;58600.66;5015767;28;20042;-79
2023/06/09 00:50:19;;;;;;;12.73;11.40;;;;;;;-145.41;100.00;58600.66;5013396;28;20057;-79
2023/06/09 00:52:46;;;;;;;12.90;10.80;;;;;;;-145.41;100.00;58600.66;5021707;28;20057;-79
2023/06/09 00:55:12;;;;;;;14.25;10.25;;;;;;;-145.41;100.00;58600.66;5011359;28;20037;-78
2023/06/09 00:57:39;;;;;;;17.38;15.48;;;;;;;-145.41;100.00;58600.66;5016425;28;20088;-79
2023/06/09 01:00:06;;;;;;;12.60;11.32;;;;;;;-145.41;100.00;58600.66;5013250;28;20492;-79
2023/06/09 01:02:32;;;;;;;12.68;11.02;;;;;;;-145.41;100.00;58600.66;5012970;28;20038;-78
2023/06/09 01:04:58;;;;;;;19.45;17.55;;;;;;;-145.41;100.00;58600.66;5015165;28;20038;-78
2023/06/09 01:07:50;;;;;;;16.83;15.13;;;;;;;-145.41;100.00;58600.66;4997635;28;20026;-79
2023/06/09 01:10:24;;;;;;;13.43;12.02;;;;;;;-145.41;100.00;58600.66;5010955;28;20050;-78
2023/06/09 01:13:14;;;;;;;13.15;11.77;;;;;;;-145.41;100.00;58600.66;5015318;28;20025;-79
2023/06/09 01:15:53;;;;;;;14.48;13.00;;;;;;;-145.41;100.00;58600.66;5010141;28;20153;-78
2023/06/09 01:18:20;;;;;;;16.42;14.73;;;;;;;-145.41;100.00;58600.66;5010502;28;20025;-78
2023/06/09 01:21:03;;;;;;;13.70;12.30;;;;;;;-145.41;100.00;58600.66;5013680;28;20061;-78
2023/06/09 01:23:37;;;;;;;19.90;17.90;;;;;;;-145.41;100.00;58600.66;5012035;28;20112;-78
2023/06/09 01:26:03;;;;;;;17.10;15.40;;;;;;;-145.41;100.00;58600.66;5012974;28;20048;-78
2023/06/09 01:28:29;;;;;;;18.48;16.67;;;;;;;-145.41;100.00;58600.66;5013945;28;20084;-78
2023/06/09 01:30:56;;;;;;;20.52;15.57;;;;;;;-145.41;100.00;58600.66;5013466;28;20042;-78
2023/06/09 01:33:24;;;;;;;15.43;13.93;;;;;;;-145.41;100.00;58600.66;5017343;28;20084;-78
2023/06/09 01:35:52;;;;;;;18.77;16.80;;;;;;;-145.41;100.00;58600.66;5015991;28;20034;-78
2023/06/09 01:38:22;;;;;;;15.63;14.00;;;;;;;-145.41;100.00;58600.66;5011993;28;20030;-79
2023/06/09 01:40:48;;;;;;;12.68;11.38;;;;;;;-145.41;100.00;58600.66;5013658;28;20485;-78
2023/06/09 01:43:14;;;;;;;13.10;11.70;;;;;;;-145.41;100.00;58600.66;5013048;28;20506;-78
2023/06/09 01:45:40;;;;;;;12.32;11.13;;;;;;;-145.41;100.00;58600.66;5012940;28;20044;-78
2023/06/09 01:48:20;;;;;;;13.15;11.75;;;;;;;-145.41;100.00;58600.66;5013850;28;20083;-78
2023/06/09 01:50:58;;;;;;;14.10;12.70;;;;;;;-145.41;100.00;58600.66;5012802;28;20025;-79
2023/06/09 01:53:32;;;;;;;13.93;12.52;;;;;;;-145.41;100.00;58600.66;5011292;28;20840;-78
2023/06/09 01:56:25;;;;;;;13.55;12.15;;;;;;;-145.41;100.00;58600.66;5013289;28;20516;-78
2023/06/09 01:59:00;;;;;;;12.63;11.35;;;;;;;-145.41;100.00;58600.66;5019426;28;20033;-79
2023/06/09 02:01:26;;;;;;;11.82;10.73;;;;;;;-145.41;100.00;58600.66;5014154;28;20030;-78
2023/06/09 02:03:54;;;;;;;12.05;10.75;;;;;;;-145.41;100.00;58600.66;5007706;28;20029;-78
2023/06/09 02:06:20;;;;;;;16.80;15.10;;;;;;;-145.41;100.00;58600.66;5014120;28;20040;-78
2023/06/09 02:08:47;;;;;;;16.10;13.52;;;;;;;-145.41;100.00;58600.66;5011793;28;20034;-78
2023/06/09 02:11:14;;;;;;;15.98;14.35;;;;;;;-145.41;100.00;58600.66;5012241;28;20073;-78
2023/06/09 02:13:40;;;;;;;18.80;16.90;;;;;;;-145.41;100.00;58600.66;5018816;28;20034;-78
2023/06/09 02:16:06;;;;;;;12.75;11.45;;;;;;;-145.41;100.00;58600.66;5016807;28;20538;-78
2023/06/09 02:18:32;;;;;;;10.98;9.50;;;;;;;-145.41;100.00;58600.66;5011679;28;20037;-78
2023/06/09 02:20:57;;;;;;;11.93;10.73;;;;;;;-145.41;100.00;58600.66;5017369;28;20589;-78
2023/06/09 02:23:23;;;;;;;12.13;10.93;;;;;;;-145.41;100.00;58600.66;5013290;28;20115;-78
2023/06/09 02:25:48;;;;;;;11.45;10.30;;;;;;;-145.41;100.00;58600.66;5020250;28;20057;-79
2023/06/09 02:28:16;;;;;;;17.25;15.40;;;;;;;-145.41;100.00;58600.66;5013538;28;20399;-79
2023/06/09 02:30:43;;;;;;;15.35;13.82;;;;;;;-145.41;100.00;58600.66;5012486;28;20033;-79
2023/06/09 02:33:08;;;;;;;14.00;12.55;;;;;;;-145.41;100.00;58600.66;5013752;28;20053;-79
2023/06/09 02:35:34;;;;;;;13.90;12.48;;;;;;;-145.41;100.00;58600.66;5013217;28;20037;-79
2023/06/09 02:38:05;;;;;;;11.93;10.73;;;;;;;-145.41;100.00;58600.66;5014605;28;20034;-79
2023/06/09 02:40:32;;;;;;;12.32;11.07;;;;;;;-145.41;100.00;58600.66;5013105;28;20116;-79
2023/06/09 02:42:58;;;;;;;10.35;9.35;;;;;;;-145.41;100.00;58600.66;5009981;28;20033;-79
2023/06/09 02:45:24;;;;;;;18.98;17.15;;;;;;;-145.41;100.00;58600.66;5013088;28;20083;-79
2023/06/09 02:47:50;;;;;;;24.02;21.58;;;;;;;-145.41;100.00;58600.66;5021493;28;20041;-79
2023/06/09 02:50:16;;;;;;;13.30;11.95;;;;;;;-145.41;100.00;58600.66;4995633;28;20478;-79
2023/06/09 02:52:42;;;;;;;9.70;8.70;;;;;;;-145.41;100.00;58600.66;5025495;28;20021;-79
2023/06/09 02:55:08;;;;;;;8.93;8.02;;;;;;;-145.41;100.00;58600.66;5012468;28;20612;-79
2023/06/09 02:57:37;;;;;;;7.50;6.75;;;;;;;-145.41;100.00;58600.66;5010584;28;20512;-78
2023/06/09 03:00:06;;;;;;;9.13;7.25;;;;;;;-145.41;100.00;58600.66;5009048;28;20039;-79
2023/06/09 03:02:32;;;;;;;14.30;12.80;;;;;;;-145.41;100.00;58600.66;5011866;28;20060;-78
2023/06/09 03:04:58;;;;;;;12.70;11.45;;;;;;;-145.41;100.00;58600.66;5016803;28;20492;-79
2023/06/09 03:07:23;;;;;;;28.33;10.57;;;;;;;-145.41;100.00;58600.66;5012756;28;20129;-78
2023/06/09 03:09:50;;;;;;;17.23;13.93;;;;;;;-145.41;100.00;58600.66;5010963;28;20030;-78
2023/06/09 03:12:15;;;;;;;12.80;11.40;;;;;;;-145.41;100.00;58600.66;5022432;28;20058;-78
2023/06/09 03:14:41;;;;;;;12.65;11.35;;;;;;;-145.41;100.00;58600.66;5011848;28;20029;-79
2023/06/09 03:17:06;;;;;;;12.73;11.43;;;;;;;-145.41;100.00;58600.66;5013292;28;20040;-78
2023/06/09 03:19:33;;;;;;;12.15;10.85;;;;;;;-145.41;100.00;58600.66;5012899;28;20034;-78
2023/06/09 03:22:03;;;;;;;18.55;16.55;;;;;;;-145.41;100.00;58600.66;5015964;28;20034;-78
2023/06/09 03:24:30;;;;;;;15.57;14.07;;;;;;;-145.41;100.00;58600.66;5007885;28;20436;-78
2023/06/09 03:26:56;;;;;;;19.85;15.60;;;;;;;-145.41;100.00;58600.66;5019343;28;20089;-78
2023/06/09 03:29:23;;;;;;;16.58;14.77;;;;;;;-145.41;100.00;58600.66;5011387;28;20026;-78
2023/06/09 03:31:48;;;;;;;19.13;17.13;;;;;;;-145.41;100.00;58600.66;5011100;28;20129;-78
2023/06/09 03:34:13;;;;;;;15.88;14.25;;;;;;;-145.41;100.00;58600.66;5018094;28;20026;-78
2023/06/09 03:36:39;;;;;;;15.73;14.00;;;;;;;-145.41;100.00;58600.66;5017577;28;20439;-78
2023/06/09 03:39:06;;;;;;;16.70;15.02;;;;;;;-145.41;100.00;58600.66;5018597;28;20038;-79
2023/06/09 03:41:32;;;;;;;16.70;14.98;;;;;;;-145.41;100.00;58600.66;5010203;28;20060;-78
2023/06/09 03:43:58;;;;;;;18.73;16.83;;;;;;;-145.41;100.00;58600.66;5011235;28;20127;-78
2023/06/09 03:46:24;;;;;;;15.35;13.75;;;;;;;-145.41;100.00;58600.66;5011132;28;20026;-79
2023/06/09 03:48:52;;;;;;;19.60;17.60;;;;;;;-145.41;100.00;58600.66;5017739;28;20033;-79
2023/06/09 03:51:19;;;;;;;16.95;14.93;;;;;;;-145.41;100.00;58600.66;5015286;28;20107;-78
2023/06/09 03:53:45;;;;;;;16.85;15.05;;;;;;;-145.41;100.00;58600.66;5011349;28;20042;-79
2023/06/09 03:56:11;;;;;;;18.15;15.80;;;;;;;-145.41;100.00;58600.66;5011480;28;20057;-79
2023/06/09 03:58:37;;;;;;;18.20;15.05;;;;;;;-145.41;100.00;58600.66;5011202;28;20069;-79
2023/06/09 04:01:02;;;;;;;21.10;18.85;;;;;;;-145.41;100.00;58600.66;5010145;28;20066;-79
2023/06/09 04:03:30;;;;;;;16.52;14.93;;;;;;;-145.41;100.00;58600.66;5014556;28;20045;-78
2023/06/09 04:05:55;;;;;;;20.58;17.30;;;;;;;-145.41;100.00;58600.66;5017874;28;20042;-78
2023/06/09 04:08:20;;;;;;;17.73;15.90;;;;;;;-145.41;100.00;58600.66;5011614;28;20022;-79
2023/06/09 04:10:46;;;;;;;18.17;16.35;;;;;;;-145.41;100.00;58600.66;5012081;28;20034;-78
2023/06/09 04:13:11;;;;;;;17.50;15.60;;;;;;;-145.41;100.00;58600.66;5011284;28;20040;-78
2023/06/09 04:15:37;;;;;;;16.50;14.90;;;;;;;-145.41;100.00;58600.66;5011084;28;20038;-79
2023/06/09 04:18:03;;;;;;;16.00;14.48;;;;;;;-145.41;100.00;58600.66;5012102;28;20045;-78
2023/06/09 04:20:31;;;;;;;14.48;13.07;;;;;;;-145.41;100.00;58600.66;5015639;28;20141;-79
2023/06/09 04:22:58;;;;;;;15.32;13.73;;;;;;;-145.41;100.00;58600.66;5010815;28;20412;-78
2023/06/09 04:25:27;;;;;;;47.42;36.22;;;;;;;-145.41;100.00;58600.66;5008800;28;20059;-79
2023/06/09 04:27:57;;;;;;;20.90;18.77;;;;;;;-145.41;100.00;58600.66;5011402;28;20060;-79
2023/06/09 04:30:25;;;;;;;18.48;16.67;;;;;;;-145.41;100.00;58600.66;5010925;28;20030;-79
2023/06/09 04:32:54;;;;;;;16.65;14.93;;;;;;;-145.41;100.00;58600.66;5009874;28;20030;-79
2023/06/09 04:35:20;;;;;;;16.40;14.70;;;;;;;-145.41;100.00;58600.66;5016957;28;20129;-80
2023/06/09 04:37:48;;;;;;;15.98;14.10;;;;;;;-145.41;100.00;58600.66;5008098;28;20037;-79
2023/06/09 04:40:21;;;;;;;14.85;13.40;;;;;;;-145.41;100.00;58600.66;4992660;28;20065;-79
2023/06/09 04:42:50;;;;;;;16.02;14.43;;;;;;;-145.41;100.00;58600.66;5012312;28;20131;-79
2023/06/09 04:45:17;;;;;;;16.73;15.02;;;;;;;-145.41;100.00;58600.66;5011751;28;20072;-79
2023/06/09 04:47:42;;;;;;;16.60;14.95;;;;;;;-145.41;100.00;58600.66;5009536;28;20025;-79
2023/06/09 04:50:10;;;;;;;14.80;13.07;;;;;;;-145.41;100.00;58600.66;5014221;28;20405;-79
2023/06/09 04:52:39;;;;;;;13.93;12.63;;;;;;;-145.41;100.00;58600.66;5018071;28;20033;-79
2023/06/09 04:55:06;;;;;;;14.20;12.70;;;;;;;-145.41;100.00;58600.66;5008023;28;20571;-82
2023/06/09 04:57:31;;;;;;;14.95;13.23;;;;;;;-145.41;100.00;58600.66;5014350;28;20396;-79
2023/06/09 05:00:13;;;;;;;13.70;12.13;;;;;;;-145.41;100.00;58600.66;5012579;28;20129;-78
2023/06/09 05:02:39;;;;;;;15.63;12.40;;;;;;;-145.41;100.00;58600.66;5014974;28;20488;-78
2023/06/09 05:05:05;;;;;;;13.82;11.98;;;;;;;-145.41;100.00;58600.66;5020063;28;20026;-79
2023/06/09 05:07:31;;;;;;;14.23;12.73;;;;;;;-145.41;100.00;58600.66;5014508;28;20037;-79
2023/06/09 05:09:56;;;;;;;13.40;12.00;;;;;;;-145.41;100.00;58600.66;5022652;28;20689;-79
2023/06/09 05:12:22;;;;;;;12.52;11.32;;;;;;;-145.41;100.00;58600.66;5021712;28;20500;-79
2023/06/09 05:14:47;;;;;;;13.55;12.10;;;;;;;-145.41;100.00;58600.66;5016170;28;20036;-79
2023/06/09 05:17:12;;;;;;;11.93;10.75;;;;;;;-145.41;100.00;58600.66;5022286;28;20121;-79
2023/06/09 05:19:38;;;;;;;12.05;10.85;;;;;;;-145.41;100.00;58600.66;5020598;28;20038;-79
2023/06/09 05:22:03;;;;;;;14.57;13.07;;;;;;;-145.41;100.00;58600.66;5018804;28;20111;-79
2023/06/09 05:24:29;;;;;;;12.68;11.48;;;;;;;-145.41;100.00;58600.66;5015474;28;20516;-79
2023/06/09 05:26:54;;;;;;;11.55;10.35;;;;;;;-145.41;100.00;58600.66;5015792;28;20042;-79
2023/06/09 05:29:19;;;;;;;11.38;10.07;;;;;;;-145.41;100.00;58600.66;5015222;28;20037;-79
2023/06/09 05:31:45;;;;;;;11.95;10.60;;;;;;;-145.41;100.00;58600.66;5019867;28;20116;-79
2023/06/09 05:34:10;;;;;;;12.13;10.30;;;;;;;-145.41;100.00;58600.66;5014536;28;20157;-79
2023/06/09 05:36:37;;;;;;;11.95;10.52;;;;;;;-145.41;100.00;58600.66;5019914;28;20033;-79
2023/06/09 05:39:02;;;;;;;13.98;12.52;;;;;;;-145.41;100.00;58600.66;5018845;28;20048;-79
2023/06/09 05:41:28;;;;;;;16.42;13.95;;;;;;;-145.41;100.00;58600.66;5018818;28;20037;-79
2023/06/09 05:43:53;;;;;;;14.77;13.25;;;;;;;-145.41;100.00;58600.66;5015885;28;20112;-79
2023/06/09 05:46:19;;;;;;;12.93;11.57;;;;;;;-145.41;100.00;58600.66;5015218;28;20044;-79
2023/06/09 05:48:44;;;;;;;13.82;12.45;;;;;;;-145.41;100.00;58600.66;5015311;28;20040;-79
2023/06/09 05:51:09;;;;;;;13.02;11.73;;;;;;;-145.41;100.00;58600.66;5015980;28;20045;-79
2023/06/09 05:53:35;;;;;;;13.45;12.10;;;;;;;-145.41;100.00;58600.66;5015692;28;20042;-79
2023/06/09 05:56:00;;;;;;;18.48;16.63;;;;;;;-145.41;100.00;58600.66;5015525;28;20052;-79
2023/06/09 05:58:27;;;;;;;14.63;13.13;;;;;;;-145.41;100.00;58600.66;5015706;28;20033;-80
2023/06/09 06:00:57;;;;;;;13.07;11.55;;;;;;;-145.41;100.00;58600.66;5014137;28;20034;-79
2023/06/09 06:03:23;;;;;;;11.65;10.45;;;;;;;-145.41;100.00;58600.66;5015456;28;20041;-79
2023/06/09 06:05:48;;;;;;;18.80;14.88;;;;;;;-145.41;100.00;58600.66;5016261;28;20034;-79
2023/06/09 06:08:14;;;;;;;10.32;9.20;;;;;;;-145.41;100.00;58600.66;5016347;28;20488;-79
2023/06/09 06:10:39;;;;;;;13.15;11.77;;;;;;;-145.41;100.00;58600.66;5016537;28;20034;-79
2023/06/09 06:13:04;;;;;;;13.88;11.73;;;;;;;-145.41;100.00;58600.66;5021009;28;20116;-79
2023/06/09 06:15:30;;;;;;;12.93;11.30;;;;;;;-145.41;100.00;58600.66;5015175;28;20037;-79
2023/06/09 06:17:55;;;;;;;13.88;12.55;;;;;;;-145.41;100.00;58600.66;5013967;28;20040;-80
2023/06/09 06:20:20;;;;;;;13.45;12.20;;;;;;;-145.41;100.00;58600.66;5015054;28;20038;-80
2023/06/09 06:22:46;;;;;;;12.82;10.98;;;;;;;-145.41;100.00;58600.66;5025616;28;20065;-79
2023/06/09 06:25:12;;;;;;;14.07;12.68;;;;;;;-145.41;100.00;58600.66;5013167;28;20026;-79
2023/06/09 06:27:38;;;;;;;11.93;10.73;;;;;;;-145.41;100.00;58600.66;5017621;28;20108;-79
2023/06/09 06:30:05;;;;;;;16.27;14.52;;;;;;;-145.41;100.00;58600.66;5016992;28;20492;-79
2023/06/09 06:32:30;;;;;;;19.08;16.42;;;;;;;-145.41;100.00;58600.66;5016522;28;20104;-79
2023/06/09 06:34:55;;;;;;;15.85;13.18;;;;;;;-145.41;100.00;58600.66;5016573;28;20037;-79
2023/06/09 06:37:22;;;;;;;13.80;12.50;;;;;;;-145.41;100.00;58600.66;5017544;28;20041;-79
2023/06/09 06:39:47;;;;;;;12.32;11.13;;;;;;;-145.41;100.00;58600.66;5015977;28;20038;-79
2023/06/09 06:42:13;;;;;;;10.55;9.40;;;;;;;-145.41;100.00;58600.66;5017967;28;20038;-79
2023/06/09 06:44:52;;;;;;;11.00;8.63;;;;;;;-145.41;100.00;58600.66;5020648;28;20034;-79
2023/06/09 06:47:18;;;;;;;12.18;9.20;;;;;;;-145.41;100.00;58600.66;5019239;28;20562;-79
2023/06/09 06:49:43;;;;;;;10.32;8.18;;;;;;;-145.41;100.00;58600.66;5019062;28;20480;-80
2023/06/09 06:52:08;;;;;;;8.55;7.57;;;;;;;-145.41;100.00;58600.66;5019895;28;20543;-80
2023/06/09 06:54:34;;;;;;;9.52;8.55;;;;;;;-145.41;100.00;58600.66;5023727;28;20034;-79
2023/06/09 06:57:01;;;;;;;9.10;6.95;;;;;;;-145.41;100.00;58600.66;5027992;28;20088;-80
2023/06/09 06:59:26;;;;;;;11.88;9.63;;;;;;;-145.41;100.00;58600.66;5016882;28;20030;-79
2023/06/09 07:01:51;;;;;;;12.50;11.23;;;;;;;-145.41;100.00;58600.66;5017870;28;20507;-80
2023/06/09 07:04:16;;;;;;;12.13;10.30;;;;;;;-145.41;100.00;58600.66;5019990;28;20059;-80
2023/06/09 07:06:42;;;;;;;16.73;13.77;;;;;;;-145.41;100.00;58600.66;5018948;28;20538;-80
2023/06/09 07:09:11;;;;;;;13.10;9.27;;;;;;;-145.41;100.00;58600.66;5018185;28;20762;-79
2023/06/09 07:11:37;;;;;;;11.77;9.20;;;;;;;-145.41;100.00;58600.66;5002543;28;20459;-79
2023/06/09 07:14:02;;;;;;;13.85;12.45;;;;;;;-145.41;100.00;58600.66;5026636;28;20037;-79
2023/06/09 07:16:27;;;;;;;13.35;11.43;;;;;;;-145.41;100.00;58600.66;5031258;22;20053;-76
2023/06/09 07:18:53;;;;;;;11.73;10.25;;;;;;;-145.41;100.00;58600.66;5010507;28;20556;-76
2023/06/09 07:21:18;;;;;;;11.40;10.20;;;;;;;-145.41;100.00;58600.66;5011298;28;20033;-76
2023/06/09 07:23:43;;;;;;;11.00;8.50;;;;;;;-145.41;100.00;58600.66;5011328;28;20080;-76
2023/06/09 07:26:09;;;;;;;10.88;9.52;;;;;;;-145.41;100.00;58600.66;5011301;28;20045;-76
2023/06/09 07:28:34;;;;;;;11.88;10.65;;;;;;;-145.41;100.00;58600.66;5011069;28;20072;-76
2023/06/09 07:30:59;;;;;;;11.23;9.90;;;;;;;-145.41;100.00;58600.66;5010236;28;20100;-76
2023/06/09 07:33:25;;;;;;;14.65;13.27;;;;;;;-145.41;100.00;58600.66;5011297;28;20104;-76
2023/06/09 07:35:52;;;;;;;11.88;10.70;;;;;;;-145.41;100.00;58600.66;5010711;28;20069;-76
2023/06/09 07:38:17;;;;;;;13.18;11.98;;;;;;;-145.41;100.00;58600.66;5010854;28;20449;-76
2023/06/09 07:40:43;;;;;;;11.32;10.10;;;;;;;-145.41;100.00;58600.66;5010439;28;20064;-76
2023/06/09 07:43:08;;;;;;;10.82;8.82;;;;;;;-145.41;100.00;58600.66;5011265;28;20091;-76
2023/06/09 07:45:33;;;;;;;6.88;6.13;;;;;;;-145.41;100.00;58600.66;5010831;28;20196;-76
2023/06/09 07:47:59;;;;;;;10.18;9.18;;;;;;;-145.41;100.00;58600.66;5010653;28;20121;-76
2023/06/09 07:50:24;;;;;;;11.65;8.85;;;;;;;-145.41;100.00;58600.66;5010254;28;20038;-76
2023/06/09 07:52:50;;;;;;;13.85;12.48;;;;;;;-145.41;100.00;58600.66;5009007;28;20050;-76
2023/06/09 07:55:15;;;;;;;11.60;10.48;;;;;;;-145.41;100.00;58600.66;5010558;28;20041;-76
2023/06/09 07:57:42;;;;;;;16.02;14.43;;;;;;;-145.41;100.00;58600.66;5010597;28;20595;-76
2023/06/09 08:00:08;;;;;;;16.73;14.98;;;;;;;-145.41;100.00;58600.66;5015133;28;20413;-76
2023/06/09 08:02:41;;;;;;;14.02;12.63;;;;;;;-145.41;100.00;58600.66;5009820;28;20038;-76
2023/06/09 08:05:06;;;;;;;12.02;10.77;;;;;;;-145.41;100.00;58600.66;5009853;28;20120;-76
2023/06/09 08:07:32;;;;;;;11.95;10.70;;;;;;;-145.41;100.00;58600.66;5010318;28;20104;-76
2023/06/09 08:09:57;;;;;;;10.35;8.82;;;;;;;-145.41;100.00;58600.66;5009369;28;20455;-76
2023/06/09 08:12:22;;;;;;;15.80;12.63;;;;;;;-145.41;100.00;58600.66;5010734;28;20379;-76
2023/06/09 08:14:48;;;;;;;12.85;11.43;;;;;;;-145.41;100.00;58600.66;5010837;28;20601;-76
2023/06/09 08:17:13;;;;;;;12.88;10.10;;;;;;;-145.41;100.00;58600.66;5010412;28;20532;-76
2023/06/09 08:19:38;;;;;;;13.10;10.10;;;;;;;-145.41;100.00;58600.66;5010104;28;20588;-76
2023/06/09 08:22:04;;;;;;;11.02;9.63;;;;;;;-145.41;100.00;58600.66;5010874;28;20042;-76
2023/06/09 08:24:29;;;;;;;7.82;6.57;;;;;;;-145.41;100.00;58600.66;5010833;28;20034;-76
2023/06/09 08:26:56;;;;;;;11.90;9.02;;;;;;;-145.41;100.00;58600.66;5010412;28;20048;-76
2023/06/09 08:29:21;;;;;;;12.63;11.43;;;;;;;-145.41;100.00;58600.66;5012486;28;20084;-76
2023/06/09 08:31:47;;;;;;;11.18;9.85;;;;;;;-145.41;100.00;58600.66;5013572;28;20456;-76
2023/06/09 08:34:13;;;;;;;11.27;10.15;;;;;;;-145.41;100.00;58600.66;5014285;28;20043;-76
2023/06/09 08:36:38;;;;;;;14.00;8.60;;;;;;;-145.41;100.00;58600.66;5013683;28;20037;-76
2023/06/09 08:39:03;;;;;;;12.02;10.02;;;;;;;-145.41;100.00;58600.66;5013325;28;20128;-76
2023/06/09 08:41:33;;;;;;;8.00;7.05;;;;;;;-145.41;100.00;58600.66;5014244;28;20057;-76
2023/06/09 08:44:01;;;;;;;12.57;11.13;;;;;;;-145.41;100.00;58600.66;5013448;28;20061;-76
2023/06/09 08:46:32;;;;;;;13.15;11.73;;;;;;;-145.41;100.00;58600.66;5013895;28;20497;-76
2023/06/09 08:48:59;;;;;;;;;;;;;;;-145.41;100.00;58600.66;5011756;28;20401;-76
2023/06/09 08:51:25;;;;;;;11.93;10.68;;;;;;;-145.41;100.00;58600.66;5013893;28;19913;-76
2023/06/09 08:53:54;;;;;;;12.02;10.57;;;;;;;-145.41;100.00;58600.66;5013556;28;20121;-76
2023/06/09 08:56:23;;;;;;;10.73;9.55;;;;;;;-145.41;100.00;58600.66;5012539;28;20041;-76
2023/06/09 08:58:50;;;;;;;9.48;7.93;;;;;;;-145.41;100.00;58600.66;5011696;28;20026;-76
2023/06/09 09:01:17;;;;;;;12.05;8.90;;;;;;;-145.41;100.00;58600.66;5014460;28;20107;-76
2023/06/09 09:03:43;;;;;;;9.30;8.40;;;;;;;-145.41;100.00;58600.66;5013863;28;20041;-76
2023/06/09 09:06:08;;;;;;;11.52;10.35;;;;;;;-145.41;100.00;58600.66;5013075;28;20026;-76
2023/06/09 09:08:33;;;;;;;10.82;9.73;;;;;;;-145.41;100.00;58600.66;5013440;28;20041;-76
2023/06/09 09:10:59;;;;;;;9.98;8.85;;;;;;;-145.41;100.00;58600.66;5012761;28;20046;-76
2023/06/09 09:13:31;;;;;;;14.43;10.23;;;;;;;-145.41;100.00;58600.66;5013607;28;20037;-76
2023/06/09 09:16:01;;;;;;;10.50;8.93;;;;;;;-145.41;100.00;58600.66;5012029;28;20386;-76
2023/06/09 09:18:35;;;;;;;6.68;5.50;;;;;;;-145.41;100.00;58600.66;5011607;28;20026;-76
2023/06/09 09:21:02;;;;;;;8.05;5.70;;;;;;;-145.41;100.00;58600.66;5012742;28;20396;-76
2023/06/09 09:23:32;;;;;;;7.93;7.13;;;;;;;-145.41;100.00;58600.66;5013134;28;20036;-76
2023/06/09 09:25:59;;;;;;;10.82;9.73;;;;;;;-145.41;100.00;58600.66;5011195;28;20053;-76
2023/06/09 09:28:25;;;;;;;9.63;8.73;;;;;;;-145.41;100.00;58600.66;5013082;28;20041;-76
2023/06/09 09:30:55;;;;;;;7.50;4.90;;;;;;;-145.41;100.00;58600.66;5012048;28;20041;-76
2023/06/09 09:33:23;;;;;;;7.30;5.63;;;;;;;-145.41;100.00;58600.66;5013168;28;20044;-77
2023/06/09 09:35:59;;;;;;;12.05;8.43;;;;;;;-145.41;100.00;58600.66;5013096;28;20092;-76
2023/06/09 09:38:27;;;;;;;12.00;7.63;;;;;;;-145.41;100.00;58600.66;5012918;28;20065;-76
2023/06/09 09:41:00;;;;;;;7.22;5.57;;;;;;;-145.41;100.00;58600.66;5011716;28;20097;-76
2023/06/09 09:43:26;;;;;;;10.05;9.02;;;;;;;-145.41;100.00;58600.66;5013053;28;20029;-77
2023/06/09 09:45:55;;;;;;;7.15;6.22;;;;;;;-145.41;100.00;58600.66;5013109;28;20103;-77
2023/06/09 09:48:23;;;;;;;9.02;5.57;;;;;;;-145.41;100.00;58600.66;5010832;28;20124;-76
2023/06/09 09:50:51;;;;;;;9.40;7.93;;;;;;;-145.41;100.00;58600.66;5012155;28;20106;-76
2023/06/09 09:53:20;;;;;;;8.43;6.80;;;;;;;-145.41;100.00;58600.66;5012564;28;20620;-76
2023/06/09 09:55:46;;;;;;;11.45;8.60;;;;;;;-145.41;100.00;58600.66;5011435;28;20561;-76
2023/06/09 09:58:13;;;;;;;8.23;6.05;;;;;;;-145.41;100.00;58600.66;5010609;28;20079;-76
2023/06/09 10:00:43;;;;;;;11.05;7.88;;;;;;;-145.41;100.00;58600.66;5011536;28;20053;-76
2023/06/09 10:03:17;;;;;;;11.48;8.57;;;;;;;-145.41;100.00;58600.66;5011810;28;20041;-76
2023/06/09 10:05:46;;;;;;;9.45;6.80;;;;;;;-145.41;100.00;58600.66;5011288;28;20145;-77
2023/06/09 10:08:17;;;;;;;10.43;7.85;;;;;;;-145.41;100.00;58600.66;5008117;28;20103;-76
2023/06/09 10:10:43;;;;;;;7.68;5.88;;;;;;;-145.41;100.00;58600.66;5011877;28;20122;-76
2023/06/09 10:13:08;;;;;;;8.13;7.18;;;;;;;-145.41;100.00;58600.66;5012471;28;20120;-76
2023/06/09 10:15:34;;;;;;;7.65;6.60;;;;;;;-145.41;100.00;58600.66;5012331;28;20068;-76
2023/06/09 10:18:00;;;;;;;5.25;4.45;;;;;;;-145.41;100.00;58600.66;5011050;28;20044;-76
2023/06/09 10:20:26;;;;;;;7.75;3.83;;;;;;;-145.41;100.00;58600.66;5011600;28;20152;-76
2023/06/09 10:22:52;;;;;;;13.20;7.80;;;;;;;-145.41;100.00;58600.66;5012215;28;20042;-76
2023/06/09 10:25:17;;;;;;;9.10;6.47;;;;;;;-145.41;100.00;58600.66;5012386;28;20038;-76
2023/06/09 10:27:43;;;;;;;7.80;6.35;;;;;;;-145.41;100.00;58600.66;5009740;28;20044;-76
2023/06/09 10:30:09;;;;;;;5.45;3.85;;;;;;;-145.41;100.00;58600.66;5010289;28;20030;-76
2023/06/09 10:32:38;;;;;;;5.00;3.65;;;;;;;-145.41;100.00;58600.66;5011959;28;20045;-76
2023/06/09 10:35:05;;;;;;;8.52;5.50;;;;;;;-145.41;100.00;58600.66;5012025;28;20034;-76
2023/06/09 10:37:32;;;;;;;9.38;6.45;;;;;;;-145.41;100.00;58600.66;5011565;28;20412;-76
2023/06/09 10:40:08;;;;;;;14.30;6.50;;;;;;;-145.41;100.00;58600.66;5011315;28;20091;-76
2023/06/09 10:42:49;;;;;;;10.43;6.57;;;;;;;-145.41;100.00;58600.66;5010600;28;20033;-76
2023/06/09 10:45:18;;;;;;;4.80;3.10;;;;;;;-145.41;100.00;58600.66;5011875;28;20087;-76
2023/06/09 10:47:48;;;;;;;8.88;6.45;;;;;;;-145.41;100.00;58600.66;5009038;28;20037;-76
2023/06/09 10:50:21;;;;;;;11.57;7.27;;;;;;;-145.41;100.00;58600.66;5010980;28;20037;-77
2023/06/09 10:52:47;;;;;;;8.05;5.20;;;;;;;-145.41;100.00;58600.66;5010182;28;20477;-76
2023/06/09 10:55:15;;;;;;;10.93;7.10;;;;;;;-145.41;100.00;58600.66;5011827;28;20090;-76
2023/06/09 10:57:41;;;;;;;11.43;7.60;;;;;;;-145.41;100.00;58600.66;5011963;28;20042;-77